sensor_id;sensor_type;location;lat;lon;timestamp;temperature;humidity
19110;DHT22;9687;50.836;12.060;2023-06-26T00:01:10;24.10;75.50
19110;DHT22;9687;50.836;12.060;2023-06-26T00:03:58;23.90;75.50
19110;DHT22;9687;50.836;12.060;2023-06-26T00:06:46;23.80;75.90
19110;DHT22;9687;50.836;12.060;2023-06-26T00:09:33;23.60;76.30
19110;DHT22;9687;50.836;12.060;2023-06-26T00:12:20;23.60;76.80
19110;DHT22;9687;50.836;12.060;2023-06-26T00:15:07;23.60;77.00
19110;DHT22;9687;50.836;12.060;2023-06-26T00:17:55;23.60;77.10
19110;DHT22;9687;50.836;12.060;2023-06-26T00:20:43;23.60;77.10
19110;DHT22;9687;50.836;12.060;2023-06-26T00:23:31;23.60;77.20
19110;DHT22;9687;50.836;12.060;2023-06-26T00:26:22;23.60;77.30
19110;DHT22;9687;50.836;12.060;2023-06-26T00:29:09;23.70;77.40
19110;DHT22;9687;50.836;12.060;2023-06-26T00:31:56;23.60;77.40
19110;DHT22;9687;50.836;12.060;2023-06-26T00:34:44;23.60;77.50
19110;DHT22;9687;50.836;12.060;2023-06-26T00:37:33;23.60;77.50
19110;DHT22;9687;50.836;12.060;2023-06-26T00:40:20;23.60;77.60
19110;DHT22;9687;50.836;12.060;2023-06-26T00:43:08;23.60;77.70
19110;DHT22;9687;50.836;12.060;2023-06-26T00:45:55;23.50;77.80
19110;DHT22;9687;50.836;12.060;2023-06-26T00:48:43;23.40;78.00
19110;DHT22;9687;50.836;12.060;2023-06-26T00:51:30;23.40;78.40
19110;DHT22;9687;50.836;12.060;2023-06-26T00:54:19;23.40;78.50
19110;DHT22;9687;50.836;12.060;2023-06-26T00:57:08;23.40;78.50
19110;DHT22;9687;50.836;12.060;2023-06-26T00:59:55;23.30;78.40
19110;DHT22;9687;50.836;12.060;2023-06-26T01:02:42;23.20;78.80
19110;DHT22;9687;50.836;12.060;2023-06-26T01:05:30;23.10;79.00
19110;DHT22;9687;50.836;12.060;2023-06-26T01:08:17;23.00;79.30
19110;DHT22;9687;50.836;12.060;2023-06-26T01:11:06;22.90;79.70
19110;DHT22;9687;50.836;12.060;2023-06-26T01:13:53;22.90;79.90
19110;DHT22;9687;50.836;12.060;2023-06-26T01:16:41;22.80;80.10
19110;DHT22;9687;50.836;12.060;2023-06-26T01:19:33;22.90;80.30
19110;DHT22;9687;50.836;12.060;2023-06-26T01:22:23;22.80;80.20
19110;DHT22;9687;50.836;12.060;2023-06-26T01:25:15;23.00;80.40
19110;DHT22;9687;50.836;12.060;2023-06-26T01:28:06;22.90;80.20
19110;DHT22;9687;50.836;12.060;2023-06-26T01:30:53;22.90;80.20
19110;DHT22;9687;50.836;12.060;2023-06-26T01:33:41;23.00;80.30
19110;DHT22;9687;50.836;12.060;2023-06-26T01:36:29;23.00;80.40
19110;DHT22;9687;50.836;12.060;2023-06-26T01:39:19;23.00;80.50
19110;DHT22;9687;50.836;12.060;2023-06-26T01:42:06;23.00;80.60
19110;DHT22;9687;50.836;12.060;2023-06-26T01:44:55;23.00;80.60
19110;DHT22;9687;50.836;12.060;2023-06-26T01:47:44;22.90;80.60
19110;DHT22;9687;50.836;12.060;2023-06-26T01:50:35;23.00;80.80
19110;DHT22;9687;50.836;12.060;2023-06-26T01:53:24;22.70;80.30
19110;DHT22;9687;50.836;12.060;2023-06-26T01:56:13;22.90;80.80
19110;DHT22;9687;50.836;12.060;2023-06-26T01:59:00;22.80;81.00
19110;DHT22;9687;50.836;12.060;2023-06-26T02:01:50;22.70;81.10
19110;DHT22;9687;50.836;12.060;2023-06-26T02:04:40;22.60;81.40
19110;DHT22;9687;50.836;12.060;2023-06-26T02:07:27;22.60;81.70
19110;DHT22;9687;50.836;12.060;2023-06-26T02:10:14;22.50;81.90
19110;DHT22;9687;50.836;12.060;2023-06-26T02:13:01;22.50;82.10
19110;DHT22;9687;50.836;12.060;2023-06-26T02:15:49;22.50;82.30
19110;DHT22;9687;50.836;12.060;2023-06-26T02:18:37;22.50;82.30
19110;DHT22;9687;50.836;12.060;2023-06-26T02:21:25;22.50;82.50
19110;DHT22;9687;50.836;12.060;2023-06-26T02:24:12;22.50;82.60
19110;DHT22;9687;50.836;12.060;2023-06-26T02:26:59;22.50;82.60
19110;DHT22;9687;50.836;12.060;2023-06-26T02:29:46;22.40;82.80
19110;DHT22;9687;50.836;12.060;2023-06-26T02:32:33;22.40;83.00
19110;DHT22;9687;50.836;12.060;2023-06-26T02:35:22;22.40;83.10
19110;DHT22;9687;50.836;12.060;2023-06-26T02:38:10;22.40;83.10
19110;DHT22;9687;50.836;12.060;2023-06-26T02:40:58;22.40;83.10
19110;DHT22;9687;50.836;12.060;2023-06-26T02:43:45;22.40;83.10
19110;DHT22;9687;50.836;12.060;2023-06-26T02:46:33;22.40;83.10
19110;DHT22;9687;50.836;12.060;2023-06-26T02:49:20;22.50;83.20
19110;DHT22;9687;50.836;12.060;2023-06-26T02:52:08;22.50;83.20
19110;DHT22;9687;50.836;12.060;2023-06-26T02:54:56;22.50;83.20
19110;DHT22;9687;50.836;12.060;2023-06-26T02:57:43;22.50;83.20
19110;DHT22;9687;50.836;12.060;2023-06-26T03:00:30;22.40;83.20
19110;DHT22;9687;50.836;12.060;2023-06-26T03:03:17;22.40;83.20
19110;DHT22;9687;50.836;12.060;2023-06-26T03:06:04;22.40;83.60
19110;DHT22;9687;50.836;12.060;2023-06-26T03:08:52;22.40;83.80
19110;DHT22;9687;50.836;12.060;2023-06-26T03:11:40;22.40;83.80
19110;DHT22;9687;50.836;12.060;2023-06-26T03:14:27;22.30;83.70
19110;DHT22;9687;50.836;12.060;2023-06-26T03:17:14;22.20;83.80
19110;DHT22;9687;50.836;12.060;2023-06-26T03:20:01;22.20;84.10
19110;DHT22;9687;50.836;12.060;2023-06-26T03:22:52;22.00;84.30
19110;DHT22;9687;50.836;12.060;2023-06-26T03:25:41;21.90;84.60
19110;DHT22;9687;50.836;12.060;2023-06-26T03:28:28;21.80;85.10
19110;DHT22;9687;50.836;12.060;2023-06-26T03:31:16;21.80;85.50
19110;DHT22;9687;50.836;12.060;2023-06-26T03:34:03;21.60;85.70
19110;DHT22;9687;50.836;12.060;2023-06-26T03:36:51;21.60;86.00
19110;DHT22;9687;50.836;12.060;2023-06-26T03:39:38;21.50;86.40
19110;DHT22;9687;50.836;12.060;2023-06-26T03:42:26;21.50;86.70
19110;DHT22;9687;50.836;12.060;2023-06-26T03:45:13;21.40;86.80
19110;DHT22;9687;50.836;12.060;2023-06-26T03:48:00;21.30;86.90
19110;DHT22;9687;50.836;12.060;2023-06-26T03:50:47;21.30;87.20
19110;DHT22;9687;50.836;12.060;2023-06-26T03:53:35;21.30;87.50
19110;DHT22;9687;50.836;12.060;2023-06-26T03:56:22;21.20;87.50
19110;DHT22;9687;50.836;12.060;2023-06-26T03:59:10;21.20;87.80
19110;DHT22;9687;50.836;12.060;2023-06-26T04:01:58;21.10;88.10
19110;DHT22;9687;50.836;12.060;2023-06-26T04:04:45;21.10;88.30
19110;DHT22;9687;50.836;12.060;2023-06-26T04:07:32;21.10;88.60
19110;DHT22;9687;50.836;12.060;2023-06-26T04:10:20;21.00;88.70
19110;DHT22;9687;50.836;12.060;2023-06-26T04:13:08;21.00;89.10
19110;DHT22;9687;50.836;12.060;2023-06-26T04:15:58;21.10;89.20
19110;DHT22;9687;50.836;12.060;2023-06-26T04:18:46;21.10;89.30
19110;DHT22;9687;50.836;12.060;2023-06-26T04:21:33;21.20;89.50
19110;DHT22;9687;50.836;12.060;2023-06-26T04:24:20;21.20;89.30
19110;DHT22;9687;50.836;12.060;2023-06-26T04:27:07;21.30;89.40
19110;DHT22;9687;50.836;12.060;2023-06-26T04:29:55;21.30;89.40
19110;DHT22;9687;50.836;12.060;2023-06-26T04:32:43;21.40;89.50
19110;DHT22;9687;50.836;12.060;2023-06-26T04:35:30;21.40;89.50
19110;DHT22;9687;50.836;12.060;2023-06-26T04:38:22;21.50;89.70
19110;DHT22;9687;50.836;12.060;2023-06-26T04:41:09;21.50;89.60
19110;DHT22;9687;50.836;12.060;2023-06-26T04:43:56;21.60;89.60
19110;DHT22;9687;50.836;12.060;2023-06-26T04:46:43;21.60;89.60
19110;DHT22;9687;50.836;12.060;2023-06-26T04:49:31;21.70;89.80
19110;DHT22;9687;50.836;12.060;2023-06-26T04:52:19;21.70;89.90
19110;DHT22;9687;50.836;12.060;2023-06-26T04:55:06;21.70;90.00
19110;DHT22;9687;50.836;12.060;2023-06-26T04:57:53;21.70;90.00
19110;DHT22;9687;50.836;12.060;2023-06-26T05:00:41;21.70;90.00
19110;DHT22;9687;50.836;12.060;2023-06-26T05:03:29;21.80;90.10
19110;DHT22;9687;50.836;12.060;2023-06-26T05:06:17;21.90;90.10
19110;DHT22;9687;50.836;12.060;2023-06-26T05:09:04;21.90;90.20
19110;DHT22;9687;50.836;12.060;2023-06-26T05:11:51;22.00;90.20
19110;DHT22;9687;50.836;12.060;2023-06-26T05:14:38;22.00;90.20
19110;DHT22;9687;50.836;12.060;2023-06-26T05:17:25;22.10;90.30
19110;DHT22;9687;50.836;12.060;2023-06-26T05:20:12;22.10;90.30
19110;DHT22;9687;50.836;12.060;2023-06-26T05:23:01;22.10;90.30
19110;DHT22;9687;50.836;12.060;2023-06-26T05:25:49;22.30;90.50
19110;DHT22;9687;50.836;12.060;2023-06-26T05:28:37;22.20;90.40
19110;DHT22;9687;50.836;12.060;2023-06-26T05:31:24;22.30;90.50
19110;DHT22;9687;50.836;12.060;2023-06-26T05:34:11;22.40;90.60
19110;DHT22;9687;50.836;12.060;2023-06-26T05:37:00;22.40;90.60
19110;DHT22;9687;50.836;12.060;2023-06-26T05:39:50;22.50;90.70
19110;DHT22;9687;50.836;12.060;2023-06-26T05:42:38;22.50;90.70
19110;DHT22;9687;50.836;12.060;2023-06-26T05:45:25;22.50;90.50
19110;DHT22;9687;50.836;12.060;2023-06-26T05:48:12;22.60;90.60
19110;DHT22;9687;50.836;12.060;2023-06-26T05:50:59;22.60;90.40
19110;DHT22;9687;50.836;12.060;2023-06-26T05:53:47;22.70;90.40
19110;DHT22;9687;50.836;12.060;2023-06-26T05:56:36;22.70;90.30
19110;DHT22;9687;50.836;12.060;2023-06-26T05:59:24;22.80;90.30
19110;DHT22;9687;50.836;12.060;2023-06-26T06:02:12;22.80;90.10
19110;DHT22;9687;50.836;12.060;2023-06-26T06:04:59;22.90;90.00
19110;DHT22;9687;50.836;12.060;2023-06-26T06:07:46;22.90;90.00
19110;DHT22;9687;50.836;12.060;2023-06-26T06:10:33;22.90;89.70
19110;DHT22;9687;50.836;12.060;2023-06-26T06:13:22;23.00;90.00
19110;DHT22;9687;50.836;12.060;2023-06-26T06:16:09;23.00;89.80
19110;DHT22;9687;50.836;12.060;2023-06-26T06:18:56;23.10;89.50
19110;DHT22;9687;50.836;12.060;2023-06-26T06:21:43;23.20;89.60
19110;DHT22;9687;50.836;12.060;2023-06-26T06:24:31;23.20;89.10
19110;DHT22;9687;50.836;12.060;2023-06-26T06:27:18;23.30;88.90
19110;DHT22;9687;50.836;12.060;2023-06-26T06:30:07;23.40;88.80
19110;DHT22;9687;50.836;12.060;2023-06-26T06:32:55;23.40;88.50
19110;DHT22;9687;50.836;12.060;2023-06-26T06:35:42;23.50;88.30
19110;DHT22;9687;50.836;12.060;2023-06-26T06:38:30;23.50;88.20
19110;DHT22;9687;50.836;12.060;2023-06-26T06:41:17;23.70;88.00
19110;DHT22;9687;50.836;12.060;2023-06-26T06:44:02;23.70;87.40
19110;DHT22;9687;50.836;12.060;2023-06-26T06:46:49;23.80;87.20
19110;DHT22;9687;50.836;12.060;2023-06-26T06:49:29;23.90;86.70
19110;DHT22;9687;50.836;12.060;2023-06-26T06:51:57;23.90;86.30
19110;DHT22;9687;50.836;12.060;2023-06-26T06:54:25;24.00;86.30
19110;DHT22;9687;50.836;12.060;2023-06-26T06:56:53;24.00;86.00
19110;DHT22;9687;50.836;12.060;2023-06-26T06:59:20;24.10;84.90
19110;DHT22;9687;50.836;12.060;2023-06-26T07:01:47;24.20;85.00
19110;DHT22;9687;50.836;12.060;2023-06-26T07:04:16;24.20;84.70
19110;DHT22;9687;50.836;12.060;2023-06-26T07:06:43;24.20;84.70
19110;DHT22;9687;50.836;12.060;2023-06-26T07:09:10;24.30;84.60
19110;DHT22;9687;50.836;12.060;2023-06-26T07:11:37;24.40;84.00
19110;DHT22;9687;50.836;12.060;2023-06-26T07:14:04;24.40;83.80
19110;DHT22;9687;50.836;12.060;2023-06-26T07:16:31;24.50;83.80
19110;DHT22;9687;50.836;12.060;2023-06-26T07:18:59;24.50;83.70
19110;DHT22;9687;50.836;12.060;2023-06-26T07:21:27;24.50;83.50
19110;DHT22;9687;50.836;12.060;2023-06-26T07:23:54;24.60;83.40
19110;DHT22;9687;50.836;12.060;2023-06-26T07:26:22;24.60;83.20
19110;DHT22;9687;50.836;12.060;2023-06-26T07:28:49;24.70;82.80
19110;DHT22;9687;50.836;12.060;2023-06-26T07:31:17;24.70;82.50
19110;DHT22;9687;50.836;12.060;2023-06-26T07:33:44;24.80;82.50
19110;DHT22;9687;50.836;12.060;2023-06-26T07:36:11;24.80;82.30
19110;DHT22;9687;50.836;12.060;2023-06-26T07:38:40;24.90;82.50
19110;DHT22;9687;50.836;12.060;2023-06-26T07:41:07;24.90;82.20
19110;DHT22;9687;50.836;12.060;2023-06-26T07:43:34;25.00;82.20
19110;DHT22;9687;50.836;12.060;2023-06-26T07:46:01;25.00;81.80
19110;DHT22;9687;50.836;12.060;2023-06-26T07:48:29;25.10;81.80
19110;DHT22;9687;50.836;12.060;2023-06-26T07:50:56;25.10;81.50
19110;DHT22;9687;50.836;12.060;2023-06-26T07:53:23;25.20;81.60
19110;DHT22;9687;50.836;12.060;2023-06-26T07:55:52;25.30;81.50
19110;DHT22;9687;50.836;12.060;2023-06-26T07:58:19;25.30;81.30
19110;DHT22;9687;50.836;12.060;2023-06-26T08:00:46;25.30;81.10
19110;DHT22;9687;50.836;12.060;2023-06-26T08:03:13;25.40;81.10
19110;DHT22;9687;50.836;12.060;2023-06-26T08:05:41;25.40;80.40
19110;DHT22;9687;50.836;12.060;2023-06-26T08:08:08;25.50;80.50
19110;DHT22;9687;50.836;12.060;2023-06-26T08:10:36;25.60;80.40
19110;DHT22;9687;50.836;12.060;2023-06-26T08:16:33;25.70;79.60
19110;DHT22;9687;50.836;12.060;2023-06-26T08:19:01;25.70;78.70
19110;DHT22;9687;50.836;12.060;2023-06-26T08:21:28;25.80;78.90
19110;DHT22;9687;50.836;12.060;2023-06-26T08:23:58;25.90;78.40
19110;DHT22;9687;50.836;12.060;2023-06-26T08:26:25;25.90;77.80
19110;DHT22;9687;50.836;12.060;2023-06-26T08:28:53;26.00;76.40
19110;DHT22;9687;50.836;12.060;2023-06-26T08:31:24;26.10;76.50
19110;DHT22;9687;50.836;12.060;2023-06-26T08:34:07;26.20;77.00
19110;DHT22;9687;50.836;12.060;2023-06-26T08:36:34;26.20;75.30
19110;DHT22;9687;50.836;12.060;2023-06-26T08:39:02;26.30;75.40
19110;DHT22;9687;50.836;12.060;2023-06-26T08:41:31;26.40;74.80
19110;DHT22;9687;50.836;12.060;2023-06-26T08:43:58;26.50;73.80
19110;DHT22;9687;50.836;12.060;2023-06-26T08:46:25;26.50;73.70
19110;DHT22;9687;50.836;12.060;2023-06-26T08:48:54;26.60;73.30
19110;DHT22;9687;50.836;12.060;2023-06-26T08:51:23;26.70;71.50
19110;DHT22;9687;50.836;12.060;2023-06-26T08:53:56;26.80;71.60
19110;DHT22;9687;50.836;12.060;2023-06-26T08:56:24;26.90;70.30
19110;DHT22;9687;50.836;12.060;2023-06-26T08:58:51;27.00;70.30
19110;DHT22;9687;50.836;12.060;2023-06-26T09:01:19;27.10;70.50
19110;DHT22;9687;50.836;12.060;2023-06-26T09:03:47;27.10;70.00
19110;DHT22;9687;50.836;12.060;2023-06-26T09:06:14;27.20;69.90
19110;DHT22;9687;50.836;12.060;2023-06-26T09:08:43;27.30;70.00
19110;DHT22;9687;50.836;12.060;2023-06-26T09:11:10;27.40;69.30
19110;DHT22;9687;50.836;12.060;2023-06-26T09:13:37;27.50;69.20
19110;DHT22;9687;50.836;12.060;2023-06-26T09:16:05;27.60;68.60
19110;DHT22;9687;50.836;12.060;2023-06-26T09:18:34;27.70;67.90
19110;DHT22;9687;50.836;12.060;2023-06-26T09:21:06;27.80;68.70
19110;DHT22;9687;50.836;12.060;2023-06-26T09:23:33;27.90;66.60
19110;DHT22;9687;50.836;12.060;2023-06-26T09:26:03;28.00;66.10
19110;DHT22;9687;50.836;12.060;2023-06-26T09:28:30;28.10;66.20
19110;DHT22;9687;50.836;12.060;2023-06-26T09:31:02;28.20;65.10
19110;DHT22;9687;50.836;12.060;2023-06-26T09:33:33;28.30;65.10
19110;DHT22;9687;50.836;12.060;2023-06-26T09:36:00;28.40;63.50
19110;DHT22;9687;50.836;12.060;2023-06-26T09:38:27;28.60;63.90
19110;DHT22;9687;50.836;12.060;2023-06-26T09:40:55;28.80;64.00
19110;DHT22;9687;50.836;12.060;2023-06-26T09:43:24;29.00;63.40
19110;DHT22;9687;50.836;12.060;2023-06-26T09:45:52;29.30;62.60
19110;DHT22;9687;50.836;12.060;2023-06-26T09:48:20;29.70;61.20
19110;DHT22;9687;50.836;12.060;2023-06-26T09:50:48;30.30;59.30
19110;DHT22;9687;50.836;12.060;2023-06-26T09:53:16;30.80;58.10
19110;DHT22;9687;50.836;12.060;2023-06-26T09:55:44;31.50;57.00
19110;DHT22;9687;50.836;12.060;2023-06-26T09:58:12;32.20;55.30
19110;DHT22;9687;50.836;12.060;2023-06-26T10:00:43;32.90;54.20
19110;DHT22;9687;50.836;12.060;2023-06-26T10:03:10;33.50;51.90
19110;DHT22;9687;50.836;12.060;2023-06-26T10:05:38;34.10;50.90
19110;DHT22;9687;50.836;12.060;2023-06-26T10:08:05;34.60;50.20
19110;DHT22;9687;50.836;12.060;2023-06-26T10:10:33;35.10;49.10
19110;DHT22;9687;50.836;12.060;2023-06-26T10:13:04;35.60;48.10
19110;DHT22;9687;50.836;12.060;2023-06-26T10:15:32;36.10;47.20
19110;DHT22;9687;50.836;12.060;2023-06-26T10:18:02;36.50;45.90
19110;DHT22;9687;50.836;12.060;2023-06-26T10:20:29;37.00;44.70
19110;DHT22;9687;50.836;12.060;2023-06-26T10:22:57;37.40;43.90
19110;DHT22;9687;50.836;12.060;2023-06-26T10:25:27;37.80;42.90
19110;DHT22;9687;50.836;12.060;2023-06-26T10:27:57;38.10;41.70
19110;DHT22;9687;50.836;12.060;2023-06-26T10:30:26;38.40;41.20
19110;DHT22;9687;50.836;12.060;2023-06-26T10:33:05;38.70;40.90
19110;DHT22;9687;50.836;12.060;2023-06-26T10:35:40;38.90;40.10
19110;DHT22;9687;50.836;12.060;2023-06-26T10:38:09;39.20;39.60
19110;DHT22;9687;50.836;12.060;2023-06-26T10:40:40;39.30;39.50
19110;DHT22;9687;50.836;12.060;2023-06-26T10:43:09;39.40;39.60
19110;DHT22;9687;50.836;12.060;2023-06-26T10:45:37;39.60;39.30
19110;DHT22;9687;50.836;12.060;2023-06-26T10:48:12;39.60;38.40
19110;DHT22;9687;50.836;12.060;2023-06-26T10:50:39;39.30;38.10
19110;DHT22;9687;50.836;12.060;2023-06-26T10:53:07;39.00;37.90
19110;DHT22;9687;50.836;12.060;2023-06-26T10:55:35;38.60;38.50
19110;DHT22;9687;50.836;12.060;2023-06-26T10:58:04;38.40;39.20
19110;DHT22;9687;50.836;12.060;2023-06-26T11:00:36;38.50;39.20
19110;DHT22;9687;50.836;12.060;2023-06-26T11:03:07;38.60;38.80
19110;DHT22;9687;50.836;12.060;2023-06-26T11:08:47;39.00;38.70
19110;DHT22;9687;50.836;12.060;2023-06-26T11:11:19;38.80;38.40
19110;DHT22;9687;50.836;12.060;2023-06-26T11:13:48;38.90;38.80
19110;DHT22;9687;50.836;12.060;2023-06-26T11:16:17;39.00;38.30
19110;DHT22;9687;50.836;12.060;2023-06-26T11:18:44;39.10;38.40
19110;DHT22;9687;50.836;12.060;2023-06-26T11:21:14;39.20;38.30
19110;DHT22;9687;50.836;12.060;2023-06-26T11:23:41;38.80;37.60
19110;DHT22;9687;50.836;12.060;2023-06-26T11:26:18;38.20;37.70
19110;DHT22;9687;50.836;12.060;2023-06-26T11:28:48;37.60;38.50
19110;DHT22;9687;50.836;12.060;2023-06-26T11:31:25;37.10;39.60
19110;DHT22;9687;50.836;12.060;2023-06-26T11:33:52;37.20;40.00
19110;DHT22;9687;50.836;12.060;2023-06-26T11:36:22;37.40;40.30
19110;DHT22;9687;50.836;12.060;2023-06-26T11:38:52;37.80;39.80
19110;DHT22;9687;50.836;12.060;2023-06-26T11:41:21;38.20;39.70
19110;DHT22;9687;50.836;12.060;2023-06-26T11:43:48;38.70;39.30
19110;DHT22;9687;50.836;12.060;2023-06-26T11:46:16;39.10;38.80
19110;DHT22;9687;50.836;12.060;2023-06-26T11:48:43;39.40;38.00
19110;DHT22;9687;50.836;12.060;2023-06-26T11:51:12;39.50;37.00
19110;DHT22;9687;50.836;12.060;2023-06-26T11:53:42;39.20;36.80
19110;DHT22;9687;50.836;12.060;2023-06-26T11:56:10;38.90;37.20
19110;DHT22;9687;50.836;12.060;2023-06-26T12:01:21;38.20;38.50
19110;DHT22;9687;50.836;12.060;2023-06-26T12:03:49;37.90;38.30
19110;DHT22;9687;50.836;12.060;2023-06-26T12:06:17;37.40;38.50
19110;DHT22;9687;50.836;12.060;2023-06-26T12:08:44;37.10;39.20
19110;DHT22;9687;50.836;12.060;2023-06-26T12:11:12;36.80;40.20
19110;DHT22;9687;50.836;12.060;2023-06-26T12:13:45;36.40;40.00
19110;DHT22;9687;50.836;12.060;2023-06-26T12:16:14;36.10;40.60
19110;DHT22;9687;50.836;12.060;2023-06-26T12:21:45;35.40;40.50
19110;DHT22;9687;50.836;12.060;2023-06-26T12:24:13;35.10;41.20
19110;DHT22;9687;50.836;12.060;2023-06-26T12:26:41;34.70;42.80
19110;DHT22;9687;50.836;12.060;2023-06-26T12:29:10;34.40;42.70
19110;DHT22;9687;50.836;12.060;2023-06-26T12:31:39;34.20;42.80
19110;DHT22;9687;50.836;12.060;2023-06-26T12:34:08;33.80;43.20
19110;DHT22;9687;50.836;12.060;2023-06-26T12:36:40;33.60;43.40
19110;DHT22;9687;50.836;12.060;2023-06-26T12:39:10;33.40;44.00
19110;DHT22;9687;50.836;12.060;2023-06-26T12:41:45;33.10;44.60
19110;DHT22;9687;50.836;12.060;2023-06-26T12:44:19;33.00;45.10
19110;DHT22;9687;50.836;12.060;2023-06-26T12:46:47;32.80;44.90
19110;DHT22;9687;50.836;12.060;2023-06-26T12:49:15;32.60;45.10
19110;DHT22;9687;50.836;12.060;2023-06-26T12:51:43;32.50;45.80
19110;DHT22;9687;50.836;12.060;2023-06-26T12:54:12;32.50;45.80
19110;DHT22;9687;50.836;12.060;2023-06-26T12:56:39;32.40;46.10
19110;DHT22;9687;50.836;12.060;2023-06-26T12:59:07;32.30;45.60
19110;DHT22;9687;50.836;12.060;2023-06-26T13:01:35;32.30;46.10
19110;DHT22;9687;50.836;12.060;2023-06-26T13:04:02;32.20;45.90
19110;DHT22;9687;50.836;12.060;2023-06-26T13:06:30;32.20;46.20
19110;DHT22;9687;50.836;12.060;2023-06-26T13:08:57;32.10;45.90
19110;DHT22;9687;50.836;12.060;2023-06-26T13:11:26;32.20;45.90
19110;DHT22;9687;50.836;12.060;2023-06-26T13:13:53;32.10;46.00
19110;DHT22;9687;50.836;12.060;2023-06-26T13:16:20;32.10;45.90
19110;DHT22;9687;50.836;12.060;2023-06-26T13:18:47;32.10;45.90
19110;DHT22;9687;50.836;12.060;2023-06-26T13:21:15;32.10;45.90
19110;DHT22;9687;50.836;12.060;2023-06-26T13:23:43;32.10;45.80
19110;DHT22;9687;50.836;12.060;2023-06-26T13:26:11;32.00;45.70
19110;DHT22;9687;50.836;12.060;2023-06-26T13:28:39;32.00;46.00
19110;DHT22;9687;50.836;12.060;2023-06-26T13:31:07;32.00;46.30
19110;DHT22;9687;50.836;12.060;2023-06-26T13:33:34;32.00;46.20
19110;DHT22;9687;50.836;12.060;2023-06-26T13:36:01;31.90;46.20
19110;DHT22;9687;50.836;12.060;2023-06-26T13:38:32;31.80;47.00
19110;DHT22;9687;50.836;12.060;2023-06-26T13:40:59;31.80;46.50
19110;DHT22;9687;50.836;12.060;2023-06-26T13:43:27;31.80;46.50
19110;DHT22;9687;50.836;12.060;2023-06-26T13:45:56;31.80;46.60
19110;DHT22;9687;50.836;12.060;2023-06-26T13:48:23;31.90;46.60
19110;DHT22;9687;50.836;12.060;2023-06-26T13:50:51;31.80;46.80
19110;DHT22;9687;50.836;12.060;2023-06-26T13:53:19;31.90;47.00
19110;DHT22;9687;50.836;12.060;2023-06-26T13:55:46;31.90;46.80
19110;DHT22;9687;50.836;12.060;2023-06-26T13:58:15;31.80;46.90
19110;DHT22;9687;50.836;12.060;2023-06-26T14:00:42;31.80;46.50
19110;DHT22;9687;50.836;12.060;2023-06-26T14:03:12;31.80;46.30
19110;DHT22;9687;50.836;12.060;2023-06-26T14:05:39;31.80;46.40
19110;DHT22;9687;50.836;12.060;2023-06-26T14:08:07;31.70;46.80
19110;DHT22;9687;50.836;12.060;2023-06-26T14:10:36;31.60;46.90
19110;DHT22;9687;50.836;12.060;2023-06-26T14:13:04;31.60;47.00
19110;DHT22;9687;50.836;12.060;2023-06-26T14:15:32;31.50;46.90
19110;DHT22;9687;50.836;12.060;2023-06-26T14:18:00;31.40;46.90
19110;DHT22;9687;50.836;12.060;2023-06-26T14:20:30;31.40;47.40
19110;DHT22;9687;50.836;12.060;2023-06-26T14:22:59;31.30;47.70
19110;DHT22;9687;50.836;12.060;2023-06-26T14:25:27;31.30;48.30
19110;DHT22;9687;50.836;12.060;2023-06-26T14:27:55;31.20;49.20
19110;DHT22;9687;50.836;12.060;2023-06-26T14:30:23;31.10;49.90
19110;DHT22;9687;50.836;12.060;2023-06-26T14:32:50;31.10;50.50
19110;DHT22;9687;50.836;12.060;2023-06-26T14:35:17;31.00;51.20
19110;DHT22;9687;50.836;12.060;2023-06-26T14:37:47;31.00;51.90
19110;DHT22;9687;50.836;12.060;2023-06-26T14:40:15;30.90;52.70
19110;DHT22;9687;50.836;12.060;2023-06-26T14:42:42;30.80;53.50
19110;DHT22;9687;50.836;12.060;2023-06-26T14:45:11;30.70;53.90
19110;DHT22;9687;50.836;12.060;2023-06-26T14:47:38;30.70;54.60
19110;DHT22;9687;50.836;12.060;2023-06-26T14:50:05;30.60;55.10
19110;DHT22;9687;50.836;12.060;2023-06-26T14:52:33;30.50;55.60
19110;DHT22;9687;50.836;12.060;2023-06-26T14:55:01;30.50;55.90
19110;DHT22;9687;50.836;12.060;2023-06-26T14:57:29;30.40;56.30
19110;DHT22;9687;50.836;12.060;2023-06-26T14:59:56;30.40;56.60
19110;DHT22;9687;50.836;12.060;2023-06-26T15:02:25;30.40;57.00
19110;DHT22;9687;50.836;12.060;2023-06-26T15:04:52;30.40;57.30
19110;DHT22;9687;50.836;12.060;2023-06-26T15:07:20;30.40;57.60
19110;DHT22;9687;50.836;12.060;2023-06-26T15:09:47;30.40;58.00
19110;DHT22;9687;50.836;12.060;2023-06-26T15:12:16;30.40;58.20
19110;DHT22;9687;50.836;12.060;2023-06-26T15:14:46;30.40;58.50
19110;DHT22;9687;50.836;12.060;2023-06-26T15:17:13;30.40;58.70
19110;DHT22;9687;50.836;12.060;2023-06-26T15:19:40;30.40;59.30
19110;DHT22;9687;50.836;12.060;2023-06-26T15:22:08;30.50;59.60
19110;DHT22;9687;50.836;12.060;2023-06-26T15:24:36;30.40;59.60
19110;DHT22;9687;50.836;12.060;2023-06-26T15:27:04;30.40;60.00
19110;DHT22;9687;50.836;12.060;2023-06-26T15:29:32;30.40;60.10
19110;DHT22;9687;50.836;12.060;2023-06-26T15:32:00;30.40;60.10
19110;DHT22;9687;50.836;12.060;2023-06-26T15:34:27;30.40;60.00
19110;DHT22;9687;50.836;12.060;2023-06-26T15:36:54;30.30;60.00
19110;DHT22;9687;50.836;12.060;2023-06-26T15:39:21;30.30;60.20
19110;DHT22;9687;50.836;12.060;2023-06-26T15:41:49;30.30;60.10
19110;DHT22;9687;50.836;12.060;2023-06-26T15:44:17;30.30;60.20
19110;DHT22;9687;50.836;12.060;2023-06-26T15:46:46;30.30;60.30
19110;DHT22;9687;50.836;12.060;2023-06-26T15:49:14;30.30;60.30
19110;DHT22;9687;50.836;12.060;2023-06-26T15:51:41;30.20;60.30
19110;DHT22;9687;50.836;12.060;2023-06-26T15:54:11;30.20;60.30
19110;DHT22;9687;50.836;12.060;2023-06-26T15:56:38;30.10;60.40
19110;DHT22;9687;50.836;12.060;2023-06-26T15:59:06;30.00;60.40
19110;DHT22;9687;50.836;12.060;2023-06-26T16:01:35;30.00;60.40
19110;DHT22;9687;50.836;12.060;2023-06-26T16:04:04;29.90;60.50
19110;DHT22;9687;50.836;12.060;2023-06-26T16:06:31;29.80;60.60
19110;DHT22;9687;50.836;12.060;2023-06-26T16:08:58;29.80;60.70
19110;DHT22;9687;50.836;12.060;2023-06-26T16:11:26;29.80;61.60
19110;DHT22;9687;50.836;12.060;2023-06-26T16:13:53;29.70;61.40
19110;DHT22;9687;50.836;12.060;2023-06-26T16:16:21;29.70;61.20
19110;DHT22;9687;50.836;12.060;2023-06-26T16:18:48;29.60;61.30
19110;DHT22;9687;50.836;12.060;2023-06-26T16:21:17;29.50;61.50
19110;DHT22;9687;50.836;12.060;2023-06-26T16:23:44;29.50;61.80
19110;DHT22;9687;50.836;12.060;2023-06-26T16:26:11;29.50;62.00
19110;DHT22;9687;50.836;12.060;2023-06-26T16:28:39;29.50;62.70
19110;DHT22;9687;50.836;12.060;2023-06-26T16:31:06;29.40;62.60
19110;DHT22;9687;50.836;12.060;2023-06-26T16:33:33;29.40;63.00
19110;DHT22;9687;50.836;12.060;2023-06-26T16:36:00;29.40;63.20